Wilton Manors, Florida
Current Conditions -  °F | °C
As of 6:53 AM on Friday 24 Oct 2014 (Local Time) from KFXE Reporting Station
Overcast Overcast  
Wind Chill: 78°   Ceiling: 3500
Heat Index: 80°   Visibility: 10mi
Dew Point: 67°   Wind: 12mph
Humidity: 68%   Direction: 50°NE
Pressure: 29.85"   Gusts: 22mph
Location:  26.1649°N, 80.1136°W
Report Text: KFXE 241053Z 05010G19KT 10SM SCT030 OVC035 26/19 A2985 RMK AO2 SLP109 T02560194
Loading
Personal Weather Stations






























Interactive Weather Map
Tropical Storm Tracking
New forecast layout! Learn more

10-Day Weather Forecast

Advertisements
Track Severe Weather on mobile